GB-0197 weather

Park Farm Airstrip
England, United Kingdom

Public forecast

Using degrees Celsius for public forecast. Weather courtesy of forecast.io.

METAR (pilot weather report)

Closest report is London Luton Airport, 8.9 nm (16.4 km) E. Retrieved 2019/03/27 01:50 UTC (12 minutes ago):

EGGW 270150Z AUTO 30007KT 9999 FEW038 05/01 Q1033

TAF (pilot weather forecast)

Forecast is more than 12 hours old.

Closest forecast is London Luton Airport, 8.9 nm (16.4 km) E. Retrieved 2019/03/26 00:00 UTC (1 day ago):

TAF EGGW 262258Z 2700/2724 30006KT 9999 SCT035 PROB30 2703/2709 8000 BKN014